sensor_id;sensor_type;location;lat;lon;timestamp;P1;durP1;ratioP1;P2;durP2;ratioP2
38859;SDS011;24609;48.316;16.174;2022-12-18T00:01:53;7.30;;;4.40;;
38859;SDS011;24609;48.316;16.174;2022-12-18T00:04:23;2.88;;;2.33;;
38859;SDS011;24609;48.316;16.174;2022-12-18T00:06:50;4.90;;;3.13;;
38859;SDS011;24609;48.316;16.174;2022-12-18T00:09:16;3.58;;;2.28;;
38859;SDS011;24609;48.316;16.174;2022-12-18T00:11:42;3.72;;;1.95;;
38859;SDS011;24609;48.316;16.174;2022-12-18T00:14:08;5.80;;;2.60;;
38859;SDS011;24609;48.316;16.174;2022-12-18T00:16:36;2.77;;;2.40;;
38859;SDS011;24609;48.316;16.174;2022-12-18T00:19:02;2.20;;;1.92;;
38859;SDS011;24609;48.316;16.174;2022-12-18T00:21:29;3.70;;;2.88;;
38859;SDS011;24609;48.316;16.174;2022-12-18T00:23:56;8.00;;;3.20;;
38859;SDS011;24609;48.316;16.174;2022-12-18T00:26:24;5.35;;;2.10;;
38859;SDS011;24609;48.316;16.174;2022-12-18T00:28:51;3.75;;;2.88;;
38859;SDS011;24609;48.316;16.174;2022-12-18T00:31:18;9.48;;;4.13;;
38859;SDS011;24609;48.316;16.174;2022-12-18T00:33:47;4.65;;;3.58;;
38859;SDS011;24609;48.316;16.174;2022-12-18T00:36:14;7.80;;;5.22;;
38859;SDS011;24609;48.316;16.174;2022-12-18T00:38:42;5.82;;;3.03;;
38859;SDS011;24609;48.316;16.174;2022-12-18T00:41:09;8.70;;;3.72;;
38859;SDS011;24609;48.316;16.174;2022-12-18T00:43:36;6.32;;;3.17;;
38859;SDS011;24609;48.316;16.174;2022-12-18T00:46:02;8.18;;;4.95;;
38859;SDS011;24609;48.316;16.174;2022-12-18T00:48:28;5.45;;;3.65;;
38859;SDS011;24609;48.316;16.174;2022-12-18T00:50:54;6.95;;;3.42;;
38859;SDS011;24609;48.316;16.174;2022-12-18T00:53:19;9.38;;;4.53;;
38859;SDS011;24609;48.316;16.174;2022-12-18T00:55:45;7.18;;;3.17;;
38859;SDS011;24609;48.316;16.174;2022-12-18T00:58:12;9.25;;;5.75;;
38859;SDS011;24609;48.316;16.174;2022-12-18T01:00:39;9.82;;;3.92;;
38859;SDS011;24609;48.316;16.174;2022-12-18T01:03:05;5.15;;;3.03;;
38859;SDS011;24609;48.316;16.174;2022-12-18T01:05:31;5.78;;;2.75;;
38859;SDS011;24609;48.316;16.174;2022-12-18T01:07:57;8.20;;;4.40;;
38859;SDS011;24609;48.316;16.174;2022-12-18T01:10:24;6.38;;;2.85;;
38859;SDS011;24609;48.316;16.174;2022-12-18T01:12:50;3.88;;;3.47;;
38859;SDS011;24609;48.316;16.174;2022-12-18T01:15:16;5.22;;;3.08;;
38859;SDS011;24609;48.316;16.174;2022-12-18T01:17:43;10.48;;;3.10;;
38859;SDS011;24609;48.316;16.174;2022-12-18T01:20:09;7.25;;;3.85;;
38859;SDS011;24609;48.316;16.174;2022-12-18T01:22:36;5.80;;;3.55;;
38859;SDS011;24609;48.316;16.174;2022-12-18T01:25:02;7.57;;;4.47;;
38859;SDS011;24609;48.316;16.174;2022-12-18T01:27:29;4.72;;;3.35;;
38859;SDS011;24609;48.316;16.174;2022-12-18T01:29:55;6.80;;;3.55;;
38859;SDS011;24609;48.316;16.174;2022-12-18T01:32:20;4.93;;;3.08;;
38859;SDS011;24609;48.316;16.174;2022-12-18T01:34:46;8.50;;;3.00;;
38859;SDS011;24609;48.316;16.174;2022-12-18T01:37:12;5.65;;;4.50;;
38859;SDS011;24609;48.316;16.174;2022-12-18T01:39:38;8.00;;;4.03;;
38859;SDS011;24609;48.316;16.174;2022-12-18T01:42:05;7.55;;;3.70;;
38859;SDS011;24609;48.316;16.174;2022-12-18T01:50:00;3.35;;;2.42;;
38859;SDS011;24609;48.316;16.174;2022-12-18T01:52:35;4.40;;;3.22;;
38859;SDS011;24609;48.316;16.174;2022-12-18T01:55:02;10.00;;;3.50;;
38859;SDS011;24609;48.316;16.174;2022-12-18T01:57:30;21.98;;;7.82;;
38859;SDS011;24609;48.316;16.174;2022-12-18T01:59:59;22.67;;;9.75;;
38859;SDS011;24609;48.316;16.174;2022-12-18T02:02:28;10.07;;;5.53;;
38859;SDS011;24609;48.316;16.174;2022-12-18T02:04:54;21.20;;;6.88;;
38859;SDS011;24609;48.316;16.174;2022-12-18T02:07:25;8.70;;;5.68;;
38859;SDS011;24609;48.316;16.174;2022-12-18T02:10:14;13.25;;;6.63;;
38859;SDS011;24609;48.316;16.174;2022-12-18T02:15:33;13.45;;;4.28;;
38859;SDS011;24609;48.316;16.174;2022-12-18T02:18:18;7.80;;;2.92;;
38859;SDS011;24609;48.316;16.174;2022-12-18T02:20:55;7.78;;;3.22;;
38859;SDS011;24609;48.316;16.174;2022-12-18T02:26:22;11.07;;;5.43;;
38859;SDS011;24609;48.316;16.174;2022-12-18T02:28:51;12.43;;;5.22;;
38859;SDS011;24609;48.316;16.174;2022-12-18T02:31:28;5.35;;;3.33;;
38859;SDS011;24609;48.316;16.174;2022-12-18T02:34:00;8.60;;;3.05;;
38859;SDS011;24609;48.316;16.174;2022-12-18T02:36:29;3.75;;;2.63;;
38859;SDS011;24609;48.316;16.174;2022-12-18T02:38:57;7.97;;;2.85;;
38859;SDS011;24609;48.316;16.174;2022-12-18T02:41:24;6.40;;;3.72;;
38859;SDS011;24609;48.316;16.174;2022-12-18T02:44:00;4.38;;;3.33;;
38859;SDS011;24609;48.316;16.174;2022-12-18T02:46:28;11.77;;;3.55;;
38859;SDS011;24609;48.316;16.174;2022-12-18T02:48:57;5.47;;;3.45;;
38859;SDS011;24609;48.316;16.174;2022-12-18T02:51:33;9.35;;;3.92;;
38859;SDS011;24609;48.316;16.174;2022-12-18T02:54:19;14.88;;;4.25;;
38859;SDS011;24609;48.316;16.174;2022-12-18T02:57:08;6.20;;;2.22;;
38859;SDS011;24609;48.316;16.174;2022-12-18T02:59:47;3.67;;;2.58;;
38859;SDS011;24609;48.316;16.174;2022-12-18T03:05:21;5.97;;;2.70;;
38859;SDS011;24609;48.316;16.174;2022-12-18T03:10:29;8.15;;;4.70;;
38859;SDS011;24609;48.316;16.174;2022-12-18T03:13:09;6.47;;;5.72;;
38859;SDS011;24609;48.316;16.174;2022-12-18T03:15:42;10.32;;;4.20;;
38859;SDS011;24609;48.316;16.174;2022-12-18T03:18:21;9.35;;;5.35;;
38859;SDS011;24609;48.316;16.174;2022-12-18T03:21:11;9.13;;;4.22;;
38859;SDS011;24609;48.316;16.174;2022-12-18T03:23:40;3.63;;;1.87;;
38859;SDS011;24609;48.316;16.174;2022-12-18T03:26:10;7.85;;;3.17;;
38859;SDS011;24609;48.316;16.174;2022-12-18T03:28:40;4.57;;;4.07;;
38859;SDS011;24609;48.316;16.174;2022-12-18T03:31:10;6.80;;;4.20;;
38859;SDS011;24609;48.316;16.174;2022-12-18T03:34:21;15.10;;;4.63;;
38859;SDS011;24609;48.316;16.174;2022-12-18T03:36:30;9.75;;;3.90;;
38859;SDS011;24609;48.316;16.174;2022-12-18T03:38:56;8.27;;;4.75;;
38859;SDS011;24609;48.316;16.174;2022-12-18T03:44:17;5.60;;;3.25;;
38859;SDS011;24609;48.316;16.174;2022-12-18T03:46:58;6.25;;;3.10;;
38859;SDS011;24609;48.316;16.174;2022-12-18T03:49:56;8.90;;;4.13;;
38859;SDS011;24609;48.316;16.174;2022-12-18T03:52:27;6.18;;;3.00;;
38859;SDS011;24609;48.316;16.174;2022-12-18T03:55:08;7.05;;;3.25;;
38859;SDS011;24609;48.316;16.174;2022-12-18T03:57:35;10.45;;;4.10;;
38859;SDS011;24609;48.316;16.174;2022-12-18T04:00:11;4.00;;;3.30;;
38859;SDS011;24609;48.316;16.174;2022-12-18T04:02:40;7.47;;;4.10;;
38859;SDS011;24609;48.316;16.174;2022-12-18T04:05:10;9.60;;;4.03;;
38859;SDS011;24609;48.316;16.174;2022-12-18T04:07:38;4.88;;;3.22;;
38859;SDS011;24609;48.316;16.174;2022-12-18T04:10:04;3.25;;;2.95;;
38859;SDS011;24609;48.316;16.174;2022-12-18T04:12:33;10.57;;;3.15;;
38859;SDS011;24609;48.316;16.174;2022-12-18T04:14:59;5.20;;;3.00;;
38859;SDS011;24609;48.316;16.174;2022-12-18T04:17:25;2.60;;;2.10;;
38859;SDS011;24609;48.316;16.174;2022-12-18T04:19:50;7.45;;;3.05;;
38859;SDS011;24609;48.316;16.174;2022-12-18T04:22:16;11.55;;;4.00;;
38859;SDS011;24609;48.316;16.174;2022-12-18T04:24:41;4.25;;;2.03;;
38859;SDS011;24609;48.316;16.174;2022-12-18T04:27:07;5.32;;;4.30;;
38859;SDS011;24609;48.316;16.174;2022-12-18T04:29:34;11.23;;;3.17;;
38859;SDS011;24609;48.316;16.174;2022-12-18T04:31:59;3.05;;;2.58;;
38859;SDS011;24609;48.316;16.174;2022-12-18T04:34:25;3.25;;;2.42;;
38859;SDS011;24609;48.316;16.174;2022-12-18T04:36:50;5.38;;;2.50;;
38859;SDS011;24609;48.316;16.174;2022-12-18T04:39:16;5.22;;;3.47;;
38859;SDS011;24609;48.316;16.174;2022-12-18T04:41:42;6.78;;;2.65;;
38859;SDS011;24609;48.316;16.174;2022-12-18T04:44:07;5.75;;;3.28;;
38859;SDS011;24609;48.316;16.174;2022-12-18T04:46:33;8.55;;;1.80;;
38859;SDS011;24609;48.316;16.174;2022-12-18T04:48:59;7.25;;;4.10;;
38859;SDS011;24609;48.316;16.174;2022-12-18T04:51:24;10.80;;;3.28;;
38859;SDS011;24609;48.316;16.174;2022-12-18T04:53:50;3.58;;;2.38;;
38859;SDS011;24609;48.316;16.174;2022-12-18T04:56:16;7.75;;;3.30;;
38859;SDS011;24609;48.316;16.174;2022-12-18T04:58:42;8.60;;;5.53;;
38859;SDS011;24609;48.316;16.174;2022-12-18T05:01:09;7.35;;;3.75;;
38859;SDS011;24609;48.316;16.174;2022-12-18T05:03:36;14.93;;;5.68;;
38859;SDS011;24609;48.316;16.174;2022-12-18T05:06:03;7.15;;;5.63;;
38859;SDS011;24609;48.316;16.174;2022-12-18T05:08:29;11.27;;;6.00;;
38859;SDS011;24609;48.316;16.174;2022-12-18T05:13:31;5.70;;;3.10;;
38859;SDS011;24609;48.316;16.174;2022-12-18T05:15:57;4.90;;;3.50;;
38859;SDS011;24609;48.316;16.174;2022-12-18T05:18:23;12.00;;;4.55;;
38859;SDS011;24609;48.316;16.174;2022-12-18T05:20:49;13.60;;;5.00;;
38859;SDS011;24609;48.316;16.174;2022-12-18T05:23:16;10.50;;;4.03;;
38859;SDS011;24609;48.316;16.174;2022-12-18T05:25:42;5.35;;;2.33;;
38859;SDS011;24609;48.316;16.174;2022-12-18T05:28:07;7.53;;;3.25;;
38859;SDS011;24609;48.316;16.174;2022-12-18T05:30:33;6.30;;;3.45;;
38859;SDS011;24609;48.316;16.174;2022-12-18T05:32:59;5.80;;;2.90;;
38859;SDS011;24609;48.316;16.174;2022-12-18T05:35:25;18.85;;;3.40;;
38859;SDS011;24609;48.316;16.174;2022-12-18T05:37:50;3.30;;;2.90;;
38859;SDS011;24609;48.316;16.174;2022-12-18T05:40:16;4.80;;;3.50;;
38859;SDS011;24609;48.316;16.174;2022-12-18T05:42:42;6.75;;;3.80;;
38859;SDS011;24609;48.316;16.174;2022-12-18T05:45:07;12.10;;;5.93;;
38859;SDS011;24609;48.316;16.174;2022-12-18T05:47:33;6.10;;;4.90;;
38859;SDS011;24609;48.316;16.174;2022-12-18T05:49:59;5.07;;;3.53;;
38859;SDS011;24609;48.316;16.174;2022-12-18T05:52:25;21.85;;;6.55;;
38859;SDS011;24609;48.316;16.174;2022-12-18T05:54:50;11.73;;;3.55;;
38859;SDS011;24609;48.316;16.174;2022-12-18T05:57:16;10.43;;;5.78;;
38859;SDS011;24609;48.316;16.174;2022-12-18T05:59:42;4.95;;;3.38;;
38859;SDS011;24609;48.316;16.174;2022-12-18T06:02:08;5.35;;;4.35;;
38859;SDS011;24609;48.316;16.174;2022-12-18T06:04:33;14.70;;;4.13;;
38859;SDS011;24609;48.316;16.174;2022-12-18T06:06:59;2.85;;;1.88;;
38859;SDS011;24609;48.316;16.174;2022-12-18T06:09:25;6.90;;;4.95;;
38859;SDS011;24609;48.316;16.174;2022-12-18T06:11:51;6.00;;;3.42;;
38859;SDS011;24609;48.316;16.174;2022-12-18T06:14:17;11.48;;;5.80;;
38859;SDS011;24609;48.316;16.174;2022-12-18T06:16:43;7.18;;;3.80;;
38859;SDS011;24609;48.316;16.174;2022-12-18T06:19:12;5.88;;;3.72;;
38859;SDS011;24609;48.316;16.174;2022-12-18T06:21:40;4.68;;;2.72;;
38859;SDS011;24609;48.316;16.174;2022-12-18T06:24:06;6.85;;;2.58;;
38859;SDS011;24609;48.316;16.174;2022-12-18T06:26:31;6.97;;;3.47;;
38859;SDS011;24609;48.316;16.174;2022-12-18T06:28:57;4.30;;;2.67;;
38859;SDS011;24609;48.316;16.174;2022-12-18T06:31:23;4.80;;;2.22;;
38859;SDS011;24609;48.316;16.174;2022-12-18T06:33:49;8.52;;;2.88;;
38859;SDS011;24609;48.316;16.174;2022-12-18T06:36:15;10.50;;;3.35;;
38859;SDS011;24609;48.316;16.174;2022-12-18T06:38:42;7.35;;;2.90;;
38859;SDS011;24609;48.316;16.174;2022-12-18T06:41:09;16.52;;;5.50;;
38859;SDS011;24609;48.316;16.174;2022-12-18T06:43:36;13.27;;;4.25;;
38859;SDS011;24609;48.316;16.174;2022-12-18T06:46:02;13.52;;;5.28;;
38859;SDS011;24609;48.316;16.174;2022-12-18T06:48:29;10.02;;;5.00;;
38859;SDS011;24609;48.316;16.174;2022-12-18T06:50:55;7.50;;;5.03;;
38859;SDS011;24609;48.316;16.174;2022-12-18T06:53:21;10.23;;;4.50;;
38859;SDS011;24609;48.316;16.174;2022-12-18T06:55:46;9.00;;;4.38;;
38859;SDS011;24609;48.316;16.174;2022-12-18T06:58:12;9.93;;;4.85;;
38859;SDS011;24609;48.316;16.174;2022-12-18T07:00:38;6.93;;;2.95;;
38859;SDS011;24609;48.316;16.174;2022-12-18T07:03:04;9.95;;;2.97;;
38859;SDS011;24609;48.316;16.174;2022-12-18T07:05:29;9.30;;;3.70;;
38859;SDS011;24609;48.316;16.174;2022-12-18T07:07:55;5.93;;;4.32;;
38859;SDS011;24609;48.316;16.174;2022-12-18T07:10:21;6.90;;;3.95;;
38859;SDS011;24609;48.316;16.174;2022-12-18T07:12:46;8.73;;;6.22;;
38859;SDS011;24609;48.316;16.174;2022-12-18T07:15:12;8.70;;;5.18;;
38859;SDS011;24609;48.316;16.174;2022-12-18T07:17:38;6.32;;;4.43;;
38859;SDS011;24609;48.316;16.174;2022-12-18T07:20:03;11.82;;;3.03;;
38859;SDS011;24609;48.316;16.174;2022-12-18T07:22:29;6.68;;;3.22;;
38859;SDS011;24609;48.316;16.174;2022-12-18T07:24:55;5.07;;;3.05;;
38859;SDS011;24609;48.316;16.174;2022-12-18T07:27:21;10.27;;;4.07;;
38859;SDS011;24609;48.316;16.174;2022-12-18T07:29:47;5.80;;;2.95;;
38859;SDS011;24609;48.316;16.174;2022-12-18T07:32:12;11.88;;;4.50;;
38859;SDS011;24609;48.316;16.174;2022-12-18T07:34:38;7.68;;;4.20;;
38859;SDS011;24609;48.316;16.174;2022-12-18T07:37:04;13.93;;;7.22;;
38859;SDS011;24609;48.316;16.174;2022-12-18T07:39:30;9.38;;;6.53;;
38859;SDS011;24609;48.316;16.174;2022-12-18T07:41:55;5.45;;;3.30;;
38859;SDS011;24609;48.316;16.174;2022-12-18T07:44:40;7.57;;;4.32;;
38859;SDS011;24609;48.316;16.174;2022-12-18T07:47:05;19.15;;;6.88;;
38859;SDS011;24609;48.316;16.174;2022-12-18T07:49:31;11.82;;;6.90;;
38859;SDS011;24609;48.316;16.174;2022-12-18T07:51:57;14.38;;;5.53;;
38859;SDS011;24609;48.316;16.174;2022-12-18T07:54:23;11.93;;;6.20;;
38859;SDS011;24609;48.316;16.174;2022-12-18T07:56:49;23.10;;;7.90;;
38859;SDS011;24609;48.316;16.174;2022-12-18T07:59:16;14.90;;;7.32;;
38859;SDS011;24609;48.316;16.174;2022-12-18T08:01:42;11.65;;;5.28;;
38859;SDS011;24609;48.316;16.174;2022-12-18T08:04:08;15.27;;;6.38;;
38859;SDS011;24609;48.316;16.174;2022-12-18T08:06:34;14.38;;;7.72;;
38859;SDS011;24609;48.316;16.174;2022-12-18T08:09:00;12.43;;;8.02;;
38859;SDS011;24609;48.316;16.174;2022-12-18T08:11:27;20.38;;;8.45;;
38859;SDS011;24609;48.316;16.174;2022-12-18T08:13:53;16.90;;;7.15;;
38859;SDS011;24609;48.316;16.174;2022-12-18T08:16:20;14.25;;;8.90;;
38859;SDS011;24609;48.316;16.174;2022-12-18T08:18:46;12.65;;;5.78;;
38859;SDS011;24609;48.316;16.174;2022-12-18T08:23:43;18.42;;;9.88;;
38859;SDS011;24609;48.316;16.174;2022-12-18T08:26:13;20.83;;;10.40;;
38859;SDS011;24609;48.316;16.174;2022-12-18T08:31:05;7.38;;;6.53;;
38859;SDS011;24609;48.316;16.174;2022-12-18T08:33:31;17.42;;;9.70;;
38859;SDS011;24609;48.316;16.174;2022-12-18T08:36:00;13.80;;;8.52;;
38859;SDS011;24609;48.316;16.174;2022-12-18T08:38:26;15.52;;;11.05;;
38859;SDS011;24609;48.316;16.174;2022-12-18T08:40:59;18.38;;;10.23;;
38859;SDS011;24609;48.316;16.174;2022-12-18T08:43:29;10.95;;;6.95;;
38859;SDS011;24609;48.316;16.174;2022-12-18T08:46:14;16.17;;;9.60;;
38859;SDS011;24609;48.316;16.174;2022-12-18T08:48:39;24.58;;;11.38;;
38859;SDS011;24609;48.316;16.174;2022-12-18T08:51:05;13.55;;;9.32;;
38859;SDS011;24609;48.316;16.174;2022-12-18T08:53:31;16.45;;;9.63;;
38859;SDS011;24609;48.316;16.174;2022-12-18T08:55:57;19.08;;;10.20;;
38859;SDS011;24609;48.316;16.174;2022-12-18T08:58:23;20.45;;;11.27;;
38859;SDS011;24609;48.316;16.174;2022-12-18T09:00:48;19.67;;;10.05;;
38859;SDS011;24609;48.316;16.174;2022-12-18T09:03:15;17.23;;;9.57;;
38859;SDS011;24609;48.316;16.174;2022-12-18T09:05:42;19.63;;;8.85;;
38859;SDS011;24609;48.316;16.174;2022-12-18T09:08:08;19.50;;;8.25;;
38859;SDS011;24609;48.316;16.174;2022-12-18T09:10:40;14.70;;;7.80;;
38859;SDS011;24609;48.316;16.174;2022-12-18T09:13:07;19.42;;;10.13;;
38859;SDS011;24609;48.316;16.174;2022-12-18T09:15:34;18.90;;;9.57;;
38859;SDS011;24609;48.316;16.174;2022-12-18T09:18:04;23.52;;;11.50;;
38859;SDS011;24609;48.316;16.174;2022-12-18T09:20:30;15.55;;;8.10;;
38859;SDS011;24609;48.316;16.174;2022-12-18T09:22:55;20.67;;;8.00;;
38859;SDS011;24609;48.316;16.174;2022-12-18T09:25:21;17.67;;;10.05;;
38859;SDS011;24609;48.316;16.174;2022-12-18T09:27:47;20.45;;;10.18;;
38859;SDS011;24609;48.316;16.174;2022-12-18T09:30:13;18.20;;;8.27;;
38859;SDS011;24609;48.316;16.174;2022-12-18T09:32:38;15.52;;;9.38;;
38859;SDS011;24609;48.316;16.174;2022-12-18T09:35:04;19.70;;;8.20;;
38859;SDS011;24609;48.316;16.174;2022-12-18T09:37:30;23.00;;;10.35;;
38859;SDS011;24609;48.316;16.174;2022-12-18T09:39:56;23.92;;;9.23;;
38859;SDS011;24609;48.316;16.174;2022-12-18T09:42:22;16.00;;;9.13;;
38859;SDS011;24609;48.316;16.174;2022-12-18T09:44:52;23.20;;;11.20;;
38859;SDS011;24609;48.316;16.174;2022-12-18T09:47:23;20.38;;;9.50;;
38859;SDS011;24609;48.316;16.174;2022-12-18T09:49:58;14.93;;;7.45;;
38859;SDS011;24609;48.316;16.174;2022-12-18T09:52:27;22.92;;;8.88;;
38859;SDS011;24609;48.316;16.174;2022-12-18T09:57:53;14.35;;;8.35;;
38859;SDS011;24609;48.316;16.174;2022-12-18T10:00:26;16.67;;;8.13;;
38859;SDS011;24609;48.316;16.174;2022-12-18T10:02:53;22.80;;;9.88;;
38859;SDS011;24609;48.316;16.174;2022-12-18T10:08:02;25.40;;;11.18;;
38859;SDS011;24609;48.316;16.174;2022-12-18T10:10:43;24.55;;;9.93;;
38859;SDS011;24609;48.316;16.174;2022-12-18T10:13:29;15.70;;;7.53;;
38859;SDS011;24609;48.316;16.174;2022-12-18T10:21:20;24.50;;;7.93;;
38859;SDS011;24609;48.316;16.174;2022-12-18T10:24:02;16.05;;;6.95;;
38859;SDS011;24609;48.316;16.174;2022-12-18T10:27:36;18.00;;;6.18;;
38859;SDS011;24609;48.316;16.174;2022-12-18T10:29:54;12.52;;;6.22;;
38859;SDS011;24609;48.316;16.174;2022-12-18T10:32:25;19.27;;;6.72;;
38859;SDS011;24609;48.316;16.174;2022-12-18T10:34:56;19.08;;;7.47;;
38859;SDS011;24609;48.316;16.174;2022-12-18T10:37:24;17.30;;;7.88;;
38859;SDS011;24609;48.316;16.174;2022-12-18T10:40:13;11.65;;;6.20;;
38859;SDS011;24609;48.316;16.174;2022-12-18T10:42:38;9.98;;;5.80;;
38859;SDS011;24609;48.316;16.174;2022-12-18T10:45:09;10.82;;;5.97;;
38859;SDS011;24609;48.316;16.174;2022-12-18T10:47:41;15.60;;;6.55;;
38859;SDS011;24609;48.316;16.174;2022-12-18T10:50:33;21.23;;;8.10;;
38859;SDS011;24609;48.316;16.174;2022-12-18T10:52:59;10.90;;;6.20;;
38859;SDS011;24609;48.316;16.174;2022-12-18T10:55:31;18.83;;;6.93;;
38859;SDS011;24609;48.316;16.174;2022-12-18T11:01:10;13.20;;;7.05;;
38859;SDS011;24609;48.316;16.174;2022-12-18T11:03:42;14.15;;;6.93;;
38859;SDS011;24609;48.316;16.174;2022-12-18T11:06:13;13.73;;;7.22;;
38859;SDS011;24609;48.316;16.174;2022-12-18T11:08:57;12.32;;;6.72;;
38859;SDS011;24609;48.316;16.174;2022-12-18T11:11:31;12.95;;;6.88;;
38859;SDS011;24609;48.316;16.174;2022-12-18T11:16:29;21.88;;;8.00;;
38859;SDS011;24609;48.316;16.174;2022-12-18T11:19:13;23.55;;;10.43;;
38859;SDS011;24609;48.316;16.174;2022-12-18T11:21:40;16.55;;;9.43;;
38859;SDS011;24609;48.316;16.174;2022-12-18T11:24:07;14.18;;;6.90;;
38859;SDS011;24609;48.316;16.174;2022-12-18T11:26:53;15.98;;;8.07;;
38859;SDS011;24609;48.316;16.174;2022-12-18T11:29:23;10.35;;;8.35;;
38859;SDS011;24609;48.316;16.174;2022-12-18T11:32:08;20.23;;;9.30;;
38859;SDS011;24609;48.316;16.174;2022-12-18T11:34:39;13.73;;;7.00;;
38859;SDS011;24609;48.316;16.174;2022-12-18T11:37:11;15.23;;;7.50;;
38859;SDS011;24609;48.316;16.174;2022-12-18T11:39:40;21.02;;;9.93;;
38859;SDS011;24609;48.316;16.174;2022-12-18T11:42:12;18.65;;;8.07;;
38859;SDS011;24609;48.316;16.174;2022-12-18T11:44:48;13.80;;;7.68;;
38859;SDS011;24609;48.316;16.174;2022-12-18T11:47:22;9.60;;;6.32;;
38859;SDS011;24609;48.316;16.174;2022-12-18T11:49:50;18.52;;;7.35;;
38859;SDS011;24609;48.316;16.174;2022-12-18T11:52:25;20.02;;;6.93;;
38859;SDS011;24609;48.316;16.174;2022-12-18T11:54:56;24.92;;;6.82;;
38859;SDS011;24609;48.316;16.174;2022-12-18T11:57:34;12.13;;;6.60;;
38859;SDS011;24609;48.316;16.174;2022-12-18T12:00:20;26.08;;;10.55;;
38859;SDS011;24609;48.316;16.174;2022-12-18T12:08:34;14.80;;;6.70;;
38859;SDS011;24609;48.316;16.174;2022-12-18T12:12:01;22.08;;;7.95;;
38859;SDS011;24609;48.316;16.174;2022-12-18T12:23:22;21.70;;;8.75;;
38859;SDS011;24609;48.316;16.174;2022-12-18T12:26:06;13.75;;;5.50;;
38859;SDS011;24609;48.316;16.174;2022-12-18T12:34:21;16.70;;;7.47;;
38859;SDS011;24609;48.316;16.174;2022-12-18T12:39:36;18.92;;;7.47;;
38859;SDS011;24609;48.316;16.174;2022-12-18T12:42:05;15.32;;;8.02;;
38859;SDS011;24609;48.316;16.174;2022-12-18T12:45:38;10.88;;;5.63;;
38859;SDS011;24609;48.316;16.174;2022-12-18T12:48:32;9.65;;;6.20;;
38859;SDS011;24609;48.316;16.174;2022-12-18T12:51:17;21.40;;;7.93;;
38859;SDS011;24609;48.316;16.174;2022-12-18T12:53:46;5.10;;;4.22;;
38859;SDS011;24609;48.316;16.174;2022-12-18T12:56:14;21.42;;;8.18;;
38859;SDS011;24609;48.316;16.174;2022-12-18T12:58:45;25.15;;;8.55;;
38859;SDS011;24609;48.316;16.174;2022-12-18T13:03:57;21.33;;;7.28;;
38859;SDS011;24609;48.316;16.174;2022-12-18T13:09:15;10.18;;;6.18;;
38859;SDS011;24609;48.316;16.174;2022-12-18T13:11:42;10.88;;;5.93;;
38859;SDS011;24609;48.316;16.174;2022-12-18T13:14:29;15.50;;;7.22;;
38859;SDS011;24609;48.316;16.174;2022-12-18T13:20:06;11.85;;;6.97;;
38859;SDS011;24609;48.316;16.174;2022-12-18T13:22:35;11.68;;;7.85;;
38859;SDS011;24609;48.316;16.174;2022-12-18T13:27:59;13.55;;;6.80;;
38859;SDS011;24609;48.316;16.174;2022-12-18T13:43:23;12.43;;;6.57;;
38859;SDS011;24609;48.316;16.174;2022-12-18T13:45:59;12.52;;;6.72;;
38859;SDS011;24609;48.316;16.174;2022-12-18T13:48:29;10.60;;;6.85;;
38859;SDS011;24609;48.316;16.174;2022-12-18T13:51:02;13.75;;;7.38;;
38859;SDS011;24609;48.316;16.174;2022-12-18T13:53:38;22.55;;;7.95;;
38859;SDS011;24609;48.316;16.174;2022-12-18T13:56:08;16.77;;;7.80;;
38859;SDS011;24609;48.316;16.174;2022-12-18T13:58:34;13.05;;;7.80;;
38859;SDS011;24609;48.316;16.174;2022-12-18T14:01:00;17.25;;;7.45;;
38859;SDS011;24609;48.316;16.174;2022-12-18T14:03:28;25.30;;;10.43;;
38859;SDS011;24609;48.316;16.174;2022-12-18T14:05:56;30.35;;;12.52;;
38859;SDS011;24609;48.316;16.174;2022-12-18T14:08:33;24.02;;;8.98;;
38859;SDS011;24609;48.316;16.174;2022-12-18T14:11:02;13.60;;;8.38;;
38859;SDS011;24609;48.316;16.174;2022-12-18T14:13:37;13.02;;;8.35;;
38859;SDS011;24609;48.316;16.174;2022-12-18T14:16:06;13.57;;;6.43;;
38859;SDS011;24609;48.316;16.174;2022-12-18T14:18:44;20.83;;;6.72;;
38859;SDS011;24609;48.316;16.174;2022-12-18T14:21:23;34.47;;;9.45;;
38859;SDS011;24609;48.316;16.174;2022-12-18T14:24:13;10.70;;;6.95;;
38859;SDS011;24609;48.316;16.174;2022-12-18T14:26:45;16.95;;;8.45;;
38859;SDS011;24609;48.316;16.174;2022-12-18T14:29:27;14.93;;;7.60;;
38859;SDS011;24609;48.316;16.174;2022-12-18T14:32:09;20.92;;;8.68;;
38859;SDS011;24609;48.316;16.174;2022-12-18T14:34:42;26.88;;;10.52;;
38859;SDS011;24609;48.316;16.174;2022-12-18T14:37:12;18.45;;;8.13;;
38859;SDS011;24609;48.316;16.174;2022-12-18T14:39:40;24.10;;;11.30;;
38859;SDS011;24609;48.316;16.174;2022-12-18T14:42:16;19.05;;;8.32;;
38859;SDS011;24609;48.316;16.174;2022-12-18T14:44:42;16.92;;;8.15;;
38859;SDS011;24609;48.316;16.174;2022-12-18T14:47:12;16.00;;;8.82;;
38859;SDS011;24609;48.316;16.174;2022-12-18T14:49:39;17.63;;;9.65;;
38859;SDS011;24609;48.316;16.174;2022-12-18T14:52:17;11.20;;;7.95;;
38859;SDS011;24609;48.316;16.174;2022-12-18T14:54:52;17.83;;;7.82;;
38859;SDS011;24609;48.316;16.174;2022-12-18T14:57:22;25.70;;;10.55;;
38859;SDS011;24609;48.316;16.174;2022-12-18T14:59:49;10.82;;;5.60;;
38859;SDS011;24609;48.316;16.174;2022-12-18T15:02:25;15.43;;;8.32;;
38859;SDS011;24609;48.316;16.174;2022-12-18T15:04:59;13.80;;;9.40;;
38859;SDS011;24609;48.316;16.174;2022-12-18T15:07:38;17.05;;;10.43;;
38859;SDS011;24609;48.316;16.174;2022-12-18T15:10:14;15.50;;;8.50;;
38859;SDS011;24609;48.316;16.174;2022-12-18T15:12:42;18.40;;;7.07;;
38859;SDS011;24609;48.316;16.174;2022-12-18T15:20:27;22.10;;;6.38;;
38859;SDS011;24609;48.316;16.174;2022-12-18T15:22:57;17.48;;;8.38;;
38859;SDS011;24609;48.316;16.174;2022-12-18T15:28:01;15.02;;;7.63;;
38859;SDS011;24609;48.316;16.174;2022-12-18T15:30:27;16.55;;;7.90;;
38859;SDS011;24609;48.316;16.174;2022-12-18T15:33:16;22.58;;;10.32;;
38859;SDS011;24609;48.316;16.174;2022-12-18T15:35:55;21.45;;;10.90;;
38859;SDS011;24609;48.316;16.174;2022-12-18T15:38:24;12.73;;;6.72;;
38859;SDS011;24609;48.316;16.174;2022-12-18T15:40:50;16.30;;;7.85;;
38859;SDS011;24609;48.316;16.174;2022-12-18T15:43:20;15.90;;;7.47;;
38859;SDS011;24609;48.316;16.174;2022-12-18T15:46:03;17.67;;;8.82;;
38859;SDS011;24609;48.316;16.174;2022-12-18T15:48:39;28.42;;;13.57;;
38859;SDS011;24609;48.316;16.174;2022-12-18T15:53:55;23.27;;;10.45;;
38859;SDS011;24609;48.316;16.174;2022-12-18T15:56:23;25.08;;;7.60;;
38859;SDS011;24609;48.316;16.174;2022-12-18T15:59:09;23.45;;;9.43;;
38859;SDS011;24609;48.316;16.174;2022-12-18T16:01:39;21.15;;;9.93;;
38859;SDS011;24609;48.316;16.174;2022-12-18T16:04:06;21.48;;;8.38;;
38859;SDS011;24609;48.316;16.174;2022-12-18T16:06:34;30.40;;;14.30;;
38859;SDS011;24609;48.316;16.174;2022-12-18T16:08:59;26.52;;;10.82;;
38859;SDS011;24609;48.316;16.174;2022-12-18T16:11:29;22.35;;;12.25;;
38859;SDS011;24609;48.316;16.174;2022-12-18T16:17:01;28.88;;;8.65;;
38859;SDS011;24609;48.316;16.174;2022-12-18T16:19:30;32.28;;;10.52;;
38859;SDS011;24609;48.316;16.174;2022-12-18T16:21:56;32.20;;;11.02;;
38859;SDS011;24609;48.316;16.174;2022-12-18T16:24:25;25.08;;;9.20;;
38859;SDS011;24609;48.316;16.174;2022-12-18T16:26:52;17.30;;;9.40;;
38859;SDS011;24609;48.316;16.174;2022-12-18T16:29:18;15.90;;;10.13;;